createdAt,value
2022-12-11T00:00:00.888Z,10.90
2022-12-11T00:01:07.400Z,10.90
2022-12-11T00:02:00.923Z,10.90
2022-12-11T00:03:00.767Z,10.90
2022-12-11T00:04:00.729Z,10.90
2022-12-11T00:05:00.722Z,10.90
2022-12-11T00:06:03.705Z,10.90
2022-12-11T00:07:00.755Z,10.90
2022-12-11T00:08:00.747Z,10.90
2022-12-11T00:09:00.709Z,13.70
2022-12-11T00:10:00.741Z,13.70
2022-12-11T00:11:01.111Z,13.70
2022-12-11T00:12:00.737Z,13.70
2022-12-11T00:13:00.718Z,13.70
2022-12-11T00:14:00.706Z,13.70
2022-12-11T00:15:00.734Z,13.70
2022-12-11T00:16:00.736Z,13.70
2022-12-11T00:17:00.911Z,13.70
2022-12-11T00:18:00.709Z,13.70
2022-12-11T00:19:00.785Z,13.70
2022-12-11T00:20:00.698Z,13.70
2022-12-11T00:21:01.545Z,13.70
2022-12-11T00:22:00.785Z,13.70
2022-12-11T00:23:00.704Z,13.70
2022-12-11T00:24:00.854Z,13.70
2022-12-11T00:25:00.797Z,13.70
2022-12-11T00:26:03.680Z,13.70
2022-12-11T00:27:00.713Z,13.70
2022-12-11T00:28:00.710Z,13.70
2022-12-11T00:29:00.745Z,13.70
2022-12-11T00:30:00.710Z,13.70
2022-12-11T00:31:04.965Z,13.70
2022-12-11T00:32:00.770Z,13.70
2022-12-11T00:33:00.723Z,13.70
2022-12-11T00:34:00.865Z,13.70
2022-12-11T00:35:00.851Z,13.70
2022-12-11T00:36:00.715Z,13.70
2022-12-11T00:37:00.762Z,13.70
2022-12-11T00:38:00.713Z,13.70
2022-12-11T00:39:01.204Z,11.30
2022-12-11T00:40:00.705Z,11.30
2022-12-11T00:41:00.747Z,11.30
2022-12-11T00:42:00.712Z,11.30
2022-12-11T00:43:00.713Z,11.30
2022-12-11T00:44:00.784Z,11.30
2022-12-11T00:45:00.730Z,11.30
2022-12-11T00:46:01.402Z,11.30
2022-12-11T00:47:00.817Z,11.30
2022-12-11T00:48:00.742Z,11.30
2022-12-11T00:49:00.713Z,11.30
2022-12-11T00:50:00.714Z,11.30
2022-12-11T00:51:00.789Z,11.30
2022-12-11T00:52:00.763Z,11.30
2022-12-11T00:53:01.045Z,11.30
2022-12-11T00:54:00.764Z,11.30
2022-12-11T00:55:00.690Z,11.30
2022-12-11T00:56:00.720Z,11.30
2022-12-11T00:57:00.750Z,11.30
2022-12-11T00:58:00.707Z,11.30
2022-12-11T00:59:00.701Z,11.30
2022-12-11T01:00:00.728Z,11.30
2022-12-11T01:01:04.646Z,11.30
2022-12-11T01:02:00.708Z,11.30
2022-12-11T01:03:00.998Z,11.30
2022-12-11T01:04:00.756Z,11.30
2022-12-11T01:05:00.881Z,11.30
2022-12-11T01:06:00.761Z,11.30
2022-12-11T01:07:00.777Z,11.30
2022-12-11T01:08:00.845Z,11.30
2022-12-11T01:09:00.719Z,13.10
2022-12-11T01:10:01.409Z,13.10
2022-12-11T01:11:02.317Z,13.10
2022-12-11T01:12:00.786Z,13.10
2022-12-11T01:13:02.550Z,13.10
2022-12-11T01:14:00.703Z,13.10
2022-12-11T01:15:00.766Z,13.10
2022-12-11T01:16:04.917Z,13.10
2022-12-11T01:17:00.805Z,13.10
2022-12-11T01:18:00.721Z,13.10
2022-12-11T01:19:00.751Z,13.10
2022-12-11T01:20:00.704Z,13.10
2022-12-11T01:21:04.653Z,13.10
2022-12-11T01:22:00.774Z,13.10
2022-12-11T01:23:00.712Z,13.10
2022-12-11T01:24:00.726Z,13.10
2022-12-11T01:25:00.691Z,13.10
2022-12-11T01:26:09.009Z,13.10
2022-12-11T01:27:00.722Z,13.10
2022-12-11T01:28:00.726Z,13.10
2022-12-11T01:29:01.166Z,13.10
2022-12-11T01:30:00.796Z,13.10
2022-12-11T01:31:00.825Z,13.10
2022-12-11T01:32:00.735Z,13.10
2022-12-11T01:33:00.920Z,13.10
2022-12-11T01:34:00.718Z,13.10
2022-12-11T01:35:02.994Z,13.10
2022-12-11T01:36:00.720Z,13.10
2022-12-11T01:37:00.774Z,13.10
2022-12-11T01:38:00.704Z,13.10
2022-12-11T01:39:00.720Z,12.20
2022-12-11T01:40:01.078Z,12.20
2022-12-11T01:41:00.737Z,12.20
2022-12-11T01:42:00.738Z,12.20
2022-12-11T01:43:00.724Z,12.20
2022-12-11T01:44:03.275Z,12.20
2022-12-11T01:45:10.929Z,12.20
2022-12-11T01:46:00.863Z,12.20
2022-12-11T01:47:00.835Z,12.20
2022-12-11T01:48:01.720Z,12.20
2022-12-11T01:49:02.816Z,12.20
2022-12-11T01:50:00.959Z,12.20
2022-12-11T01:51:03.778Z,12.20
2022-12-11T01:52:03.665Z,12.20
2022-12-11T01:53:01.419Z,12.20
2022-12-11T01:54:04.242Z,12.20
2022-12-11T01:55:00.924Z,12.20
2022-12-11T01:56:01.488Z,12.20
2022-12-11T01:57:03.287Z,12.20
2022-12-11T01:58:01.374Z,12.20
2022-12-11T01:59:02.872Z,12.20
2022-12-11T02:00:00.712Z,12.20
2022-12-11T02:01:01.539Z,12.20
2022-12-11T02:02:06.658Z,12.20
2022-12-11T02:03:00.756Z,12.20
2022-12-11T02:04:00.990Z,12.20
2022-12-11T02:05:01.924Z,12.20
2022-12-11T02:06:01.130Z,12.20
2022-12-11T02:07:00.792Z,12.20
2022-12-11T02:08:01.901Z,12.20
2022-12-11T02:09:01.189Z,12.00
2022-12-11T02:10:00.771Z,12.00
2022-12-11T02:11:01.720Z,12.00
2022-12-11T02:12:02.649Z,12.00
2022-12-11T02:13:06.696Z,12.00
2022-12-11T02:14:05.508Z,12.00
2022-12-11T02:15:10.791Z,12.00
2022-12-11T02:16:10.716Z,12.00
2022-12-11T02:17:10.526Z,12.00
2022-12-11T02:18:01.719Z,12.00
2022-12-11T02:19:06.835Z,12.00
2022-12-11T02:20:00.751Z,12.00
2022-12-11T02:21:00.689Z,12.00
2022-12-11T02:22:02.320Z,12.00
2022-12-11T02:23:10.635Z,12.00
2022-12-11T02:24:10.658Z,12.00
2022-12-11T02:25:04.080Z,12.00
2022-12-11T02:26:10.621Z,12.00
2022-12-11T02:27:10.632Z,12.00
2022-12-11T02:28:10.655Z,12.00
2022-12-11T02:29:01.621Z,12.00
2022-12-11T02:30:05.032Z,12.00
2022-12-11T02:31:03.430Z,12.00
2022-12-11T02:32:08.784Z,12.00
2022-12-11T02:33:00.854Z,12.00
2022-12-11T02:34:10.637Z,12.00
2022-12-11T02:35:05.860Z,12.00
2022-12-11T02:36:02.811Z,12.00
2022-12-11T02:37:02.450Z,12.00
2022-12-11T02:38:05.454Z,12.00
2022-12-11T02:39:02.092Z,14.70
2022-12-11T02:40:02.184Z,14.70
2022-12-11T02:41:01.699Z,14.70
2022-12-11T02:42:01.559Z,14.70
2022-12-11T02:43:02.343Z,14.70
2022-12-11T02:44:01.464Z,14.70
2022-12-11T02:45:02.018Z,14.70
2022-12-11T02:46:02.953Z,14.70
2022-12-11T02:47:02.461Z,14.70
2022-12-11T02:48:02.152Z,14.70
2022-12-11T02:49:01.914Z,14.70
2022-12-11T02:50:02.390Z,14.70
2022-12-11T02:51:02.111Z,14.70
2022-12-11T02:52:02.562Z,14.70
2022-12-11T02:53:02.004Z,14.70
2022-12-11T02:54:01.648Z,14.70
2022-12-11T02:55:01.576Z,14.70
2022-12-11T02:56:05.649Z,14.70
2022-12-11T02:57:03.553Z,14.70
2022-12-11T02:58:03.611Z,14.70
2022-12-11T02:59:06.024Z,14.70
2022-12-11T03:00:00.845Z,14.70
2022-12-11T03:01:00.762Z,14.70
2022-12-11T03:02:01.318Z,14.70
2022-12-11T03:03:00.932Z,14.70
2022-12-11T03:04:00.962Z,14.70
2022-12-11T03:05:00.749Z,14.70
2022-12-11T03:06:00.722Z,14.70
2022-12-11T03:07:02.703Z,14.70
2022-12-11T03:08:00.996Z,14.70
2022-12-11T03:09:00.920Z,12.60
2022-12-11T03:10:00.823Z,12.60
2022-12-11T03:11:00.702Z,12.60
2022-12-11T03:12:00.724Z,12.60
2022-12-11T03:13:01.576Z,12.60
2022-12-11T03:14:01.455Z,12.60
2022-12-11T03:15:02.525Z,12.60
2022-12-11T03:16:10.667Z,12.60
2022-12-11T03:17:06.962Z,12.60
2022-12-11T03:18:10.633Z,12.60
2022-12-11T03:19:00.684Z,12.60
2022-12-11T03:20:10.645Z,12.60
2022-12-11T03:21:04.207Z,12.60
2022-12-11T03:22:07.306Z,12.60
2022-12-11T03:23:01.692Z,12.60
2022-12-11T03:24:00.702Z,12.60
2022-12-11T03:25:03.795Z,12.60
2022-12-11T03:26:03.819Z,12.60
2022-12-11T03:27:09.605Z,12.60
2022-12-11T03:28:08.052Z,12.60
2022-12-11T03:29:03.700Z,12.60
2022-12-11T03:30:05.770Z,12.60
2022-12-11T03:31:03.001Z,12.60
2022-12-11T03:32:01.723Z,12.60
2022-12-11T03:33:03.377Z,12.60
2022-12-11T03:34:02.798Z,12.60
2022-12-11T03:35:07.336Z,12.60
2022-12-11T03:36:10.674Z,12.60
2022-12-11T03:37:03.260Z,12.60
2022-12-11T03:38:04.165Z,12.60
2022-12-11T03:39:06.642Z,12.90
2022-12-11T03:40:04.050Z,12.90
2022-12-11T03:41:02.291Z,12.90
2022-12-11T03:42:01.758Z,12.90
2022-12-11T03:43:01.929Z,12.90
2022-12-11T03:44:00.852Z,12.90
2022-12-11T03:45:01.426Z,12.90
2022-12-11T03:46:01.093Z,12.90
2022-12-11T03:47:02.247Z,12.90
2022-12-11T03:48:01.736Z,12.90
2022-12-11T03:49:04.440Z,12.90
2022-12-11T03:50:01.009Z,12.90
2022-12-11T03:51:03.284Z,12.90
2022-12-11T03:52:01.550Z,12.90
2022-12-11T03:53:02.003Z,12.90
2022-12-11T03:54:01.322Z,12.90
2022-12-11T03:55:02.098Z,12.90
2022-12-11T03:56:01.970Z,12.90
2022-12-11T03:57:02.887Z,12.90
2022-12-11T03:58:00.719Z,12.90
2022-12-11T03:59:00.746Z,12.90
2022-12-11T04:00:01.085Z,12.90
2022-12-11T04:01:00.708Z,12.90
2022-12-11T04:02:00.746Z,12.90
2022-12-11T04:03:00.774Z,12.90
2022-12-11T04:04:00.803Z,12.90
2022-12-11T04:05:00.739Z,12.90
2022-12-11T04:06:00.715Z,12.90
2022-12-11T04:07:00.713Z,12.90
2022-12-11T04:08:01.144Z,12.90
2022-12-11T04:09:00.721Z,16.80
2022-12-11T04:10:01.041Z,16.80
2022-12-11T04:11:01.721Z,16.80
2022-12-11T04:12:00.726Z,16.80
2022-12-11T04:13:00.713Z,16.80
2022-12-11T04:14:03.162Z,16.80
2022-12-11T04:15:00.701Z,16.80
2022-12-11T04:16:00.837Z,16.80
2022-12-11T04:17:00.879Z,16.80
2022-12-11T04:18:00.731Z,16.80
2022-12-11T04:19:00.762Z,16.80
2022-12-11T04:20:01.281Z,16.80
2022-12-11T04:21:00.770Z,16.80
2022-12-11T04:22:00.860Z,16.80
2022-12-11T04:23:04.485Z,16.80
2022-12-11T04:24:03.234Z,16.80
2022-12-11T04:25:01.771Z,16.80
2022-12-11T04:26:10.029Z,16.80
2022-12-11T04:27:01.583Z,16.80
2022-12-11T04:28:00.925Z,16.80
2022-12-11T04:29:00.697Z,16.80
2022-12-11T04:30:16.453Z,16.80
2022-12-11T04:31:01.417Z,16.80
2022-12-11T04:32:00.720Z,16.80
2022-12-11T04:33:01.202Z,16.80
2022-12-11T04:34:00.731Z,16.80
2022-12-11T04:35:00.847Z,16.80
2022-12-11T04:36:00.722Z,16.80
2022-12-11T04:37:00.698Z,16.80
2022-12-11T04:38:00.710Z,16.80
2022-12-11T04:39:00.702Z,14.40
2022-12-11T04:40:00.926Z,14.40
2022-12-11T04:41:01.873Z,14.40
2022-12-11T04:42:00.697Z,14.40
2022-12-11T04:43:00.729Z,14.40
2022-12-11T04:44:00.749Z,14.40
2022-12-11T04:45:00.751Z,14.40
2022-12-11T04:46:00.711Z,14.40
2022-12-11T04:47:00.696Z,14.40
2022-12-11T04:48:00.761Z,14.40
2022-12-11T04:49:00.851Z,14.40
2022-12-11T04:50:00.838Z,14.40
2022-12-11T04:51:00.702Z,14.40
2022-12-11T04:52:00.745Z,14.40
2022-12-11T04:53:00.716Z,14.40
2022-12-11T04:54:00.727Z,14.40
2022-12-11T04:55:01.992Z,14.40
2022-12-11T04:56:00.774Z,14.40
2022-12-11T04:57:00.695Z,14.40
2022-12-11T04:58:00.698Z,14.40
2022-12-11T04:59:00.709Z,14.40
2022-12-11T05:00:00.862Z,14.40
2022-12-11T05:01:05.953Z,14.40
2022-12-11T05:02:00.786Z,14.40
2022-12-11T05:03:00.757Z,14.40
2022-12-11T05:04:00.715Z,14.40
2022-12-11T05:05:01.461Z,14.40
2022-12-11T05:06:00.738Z,14.40
2022-12-11T05:07:00.957Z,14.40
2022-12-11T05:08:00.755Z,14.40
2022-12-11T05:09:00.698Z,11.90
2022-12-11T05:10:00.755Z,11.90
2022-12-11T05:11:02.242Z,11.90
2022-12-11T05:12:00.909Z,11.90
2022-12-11T05:13:00.720Z,11.90
2022-12-11T05:14:00.716Z,11.90
2022-12-11T05:15:00.740Z,11.90
2022-12-11T05:16:02.781Z,11.90
2022-12-11T05:17:00.698Z,11.90
2022-12-11T05:18:00.705Z,11.90
2022-12-11T05:19:00.694Z,11.90
2022-12-11T05:20:00.704Z,11.90
2022-12-11T05:21:01.576Z,11.90
2022-12-11T05:22:00.693Z,11.90
2022-12-11T05:23:00.716Z,11.90
2022-12-11T05:24:00.783Z,11.90
2022-12-11T05:25:00.726Z,11.90
2022-12-11T05:26:02.337Z,11.90
2022-12-11T05:27:00.747Z,11.90
2022-12-11T05:28:00.696Z,11.90
2022-12-11T05:29:00.723Z,11.90
2022-12-11T05:30:00.746Z,11.90
2022-12-11T05:31:02.902Z,11.90
2022-12-11T05:32:00.711Z,11.90
2022-12-11T05:33:00.695Z,11.90
2022-12-11T05:34:00.835Z,11.90
2022-12-11T05:35:00.750Z,11.90
2022-12-11T05:36:01.218Z,11.90
2022-12-11T05:37:00.750Z,11.90
2022-12-11T05:38:00.743Z,11.90
2022-12-11T05:39:00.908Z,12.70
2022-12-11T05:40:01.064Z,12.70
2022-12-11T05:41:01.664Z,12.70
2022-12-11T05:42:00.696Z,12.70
2022-12-11T05:43:00.711Z,12.70
2022-12-11T05:44:00.698Z,12.70
2022-12-11T05:45:00.696Z,12.70
2022-12-11T05:46:05.922Z,12.70
2022-12-11T05:47:00.826Z,12.70
2022-12-11T05:48:00.823Z,12.70
2022-12-11T05:49:01.171Z,12.70
2022-12-11T05:50:01.704Z,12.70
2022-12-11T05:51:01.462Z,12.70
2022-12-11T05:52:00.720Z,12.70
2022-12-11T05:53:00.699Z,12.70
2022-12-11T05:54:01.119Z,12.70
2022-12-11T05:55:00.709Z,12.70
2022-12-11T05:56:05.144Z,12.70
2022-12-11T05:57:00.702Z,12.70
2022-12-11T05:58:00.740Z,12.70
2022-12-11T05:59:01.542Z,12.70
2022-12-11T06:00:00.728Z,12.70
2022-12-11T06:01:00.984Z,12.70
2022-12-11T06:02:00.851Z,12.70
2022-12-11T06:03:00.861Z,12.70
2022-12-11T06:04:01.123Z,12.70
2022-12-11T06:05:00.720Z,12.70
2022-12-11T06:06:01.621Z,12.70
2022-12-11T06:07:01.711Z,12.70
2022-12-11T06:08:00.803Z,12.70
2022-12-11T06:09:00.869Z,13.50
2022-12-11T06:10:00.716Z,13.50
2022-12-11T06:11:01.014Z,13.50
2022-12-11T06:12:00.735Z,13.50
2022-12-11T06:13:00.795Z,13.50
2022-12-11T06:14:01.691Z,13.50
2022-12-11T06:15:00.749Z,13.50
2022-12-11T06:16:01.363Z,13.50
2022-12-11T06:17:00.721Z,13.50
2022-12-11T06:18:00.748Z,13.50
2022-12-11T06:19:00.696Z,13.50
2022-12-11T06:20:00.704Z,13.50
2022-12-11T06:21:00.732Z,13.50
2022-12-11T06:22:00.794Z,13.50
2022-12-11T06:23:00.946Z,13.50
2022-12-11T06:24:01.805Z,13.50
2022-12-11T06:25:00.721Z,13.50
2022-12-11T06:26:02.466Z,13.50
2022-12-11T06:27:00.691Z,13.50
2022-12-11T06:28:00.715Z,13.50
2022-12-11T06:29:00.713Z,13.50
2022-12-11T06:30:00.866Z,13.50
2022-12-11T06:31:01.044Z,13.50
2022-12-11T06:32:00.824Z,13.50
2022-12-11T06:33:00.713Z,13.50
2022-12-11T06:34:00.701Z,13.50
2022-12-11T06:35:00.742Z,13.50
2022-12-11T06:36:01.838Z,13.50
2022-12-11T06:37:00.698Z,13.50
2022-12-11T06:38:00.709Z,13.50
2022-12-11T06:39:00.719Z,13.10
2022-12-11T06:40:00.979Z,13.10
2022-12-11T06:41:01.509Z,13.10
2022-12-11T06:42:00.690Z,13.10
2022-12-11T06:43:00.733Z,13.10
2022-12-11T06:44:00.732Z,13.10
2022-12-11T06:45:00.701Z,13.10
2022-12-11T06:46:04.141Z,13.10
2022-12-11T06:47:00.709Z,13.10
2022-12-11T06:48:00.709Z,13.10
2022-12-11T06:49:00.726Z,13.10
2022-12-11T06:50:00.719Z,13.10
2022-12-11T06:51:04.491Z,13.10
2022-12-11T06:52:00.701Z,13.10
2022-12-11T06:53:00.699Z,13.10
2022-12-11T06:54:00.759Z,13.10
2022-12-11T06:55:00.698Z,13.10
2022-12-11T06:56:01.861Z,13.10
2022-12-11T06:57:00.741Z,13.10
2022-12-11T06:58:00.726Z,13.10
2022-12-11T06:59:06.965Z,13.10
2022-12-11T07:00:00.731Z,13.10
2022-12-11T07:01:01.116Z,13.10
2022-12-11T07:02:00.789Z,13.10
2022-12-11T07:03:00.785Z,13.10
2022-12-11T07:04:00.709Z,13.10
2022-12-11T07:05:00.731Z,13.10
2022-12-11T07:06:01.081Z,13.10
2022-12-11T07:07:00.705Z,13.10
2022-12-11T07:08:00.781Z,13.10
2022-12-11T07:09:02.726Z,15.20
2022-12-11T07:10:07.666Z,15.20
2022-12-11T07:11:03.233Z,15.20
2022-12-11T07:12:00.695Z,15.20
2022-12-11T07:13:00.703Z,15.20
2022-12-11T07:14:00.737Z,15.20
2022-12-11T07:15:00.869Z,15.20
2022-12-11T07:16:01.259Z,15.20
2022-12-11T07:17:00.999Z,15.20
2022-12-11T07:18:00.699Z,15.20
2022-12-11T07:19:00.758Z,15.20
2022-12-11T07:20:00.742Z,15.20
2022-12-11T07:21:00.712Z,15.20
2022-12-11T07:22:00.757Z,15.20
2022-12-11T07:23:00.711Z,15.20
2022-12-11T07:24:00.709Z,15.20
2022-12-11T07:25:00.739Z,15.20
2022-12-11T07:26:04.495Z,15.20
2022-12-11T07:27:00.717Z,15.20
2022-12-11T07:28:00.697Z,15.20
2022-12-11T07:29:00.759Z,15.20
2022-12-11T07:30:00.768Z,15.20
2022-12-11T07:31:05.294Z,15.20
2022-12-11T07:32:00.855Z,15.20
2022-12-11T07:33:00.768Z,15.20
2022-12-11T07:34:02.534Z,15.20
2022-12-11T07:35:00.724Z,15.20
2022-12-11T07:36:02.253Z,15.20
2022-12-11T07:37:00.776Z,15.20
2022-12-11T07:38:00.792Z,15.20
2022-12-11T07:39:00.998Z,16.30
2022-12-11T07:40:00.715Z,16.30
2022-12-11T07:41:01.430Z,16.30
2022-12-11T07:42:00.729Z,16.30
2022-12-11T07:43:00.697Z,16.30
2022-12-11T07:44:01.593Z,16.30
2022-12-11T07:45:00.709Z,16.30
2022-12-11T07:46:03.272Z,16.30
2022-12-11T07:47:00.711Z,16.30
2022-12-11T07:48:00.755Z,16.30
2022-12-11T07:49:00.841Z,16.30
2022-12-11T07:50:00.708Z,16.30
2022-12-11T07:51:10.669Z,16.30
2022-12-11T07:52:00.699Z,16.30
2022-12-11T07:53:00.699Z,16.30
2022-12-11T07:54:02.405Z,16.30
2022-12-11T07:55:00.692Z,16.30
2022-12-11T07:56:00.865Z,16.30
2022-12-11T07:57:00.720Z,16.30
2022-12-11T07:58:00.717Z,16.30
2022-12-11T07:59:01.737Z,16.30
2022-12-11T08:00:00.698Z,16.30
2022-12-11T08:01:00.872Z,16.30
2022-12-11T08:02:00.841Z,16.30
2022-12-11T08:03:00.774Z,16.30
2022-12-11T08:04:01.415Z,16.30
2022-12-11T08:05:00.698Z,16.30
2022-12-11T08:06:00.697Z,16.30
2022-12-11T08:07:00.706Z,16.30
2022-12-11T08:08:00.758Z,16.30
2022-12-11T08:09:02.003Z,18.20
2022-12-11T08:10:01.066Z,18.20
2022-12-11T08:11:01.650Z,18.20
2022-12-11T08:12:00.708Z,18.20
2022-12-11T08:13:00.770Z,18.20
2022-12-11T08:14:00.748Z,18.20
2022-12-11T08:15:00.712Z,18.20
2022-12-11T08:16:04.707Z,18.20
2022-12-11T08:17:00.741Z,18.20
2022-12-11T08:18:00.754Z,18.20
2022-12-11T08:19:00.830Z,18.20
2022-12-11T08:20:00.767Z,18.20
2022-12-11T08:21:09.925Z,18.20
2022-12-11T08:22:00.724Z,18.20
2022-12-11T08:23:00.689Z,18.20
2022-12-11T08:24:00.734Z,18.20
2022-12-11T08:25:00.737Z,18.20
2022-12-11T08:26:01.573Z,18.20
2022-12-11T08:27:00.704Z,18.20
2022-12-11T08:28:00.746Z,18.20
2022-12-11T08:29:00.741Z,18.20
2022-12-11T08:30:00.700Z,18.20
2022-12-11T08:31:02.977Z,18.20
2022-12-11T08:32:00.736Z,18.20
2022-12-11T08:33:00.693Z,18.20
2022-12-11T08:34:00.698Z,18.20
2022-12-11T08:35:00.830Z,18.20
2022-12-11T08:36:09.211Z,18.20
2022-12-11T08:37:01.232Z,18.20
2022-12-11T08:38:00.703Z,18.20
2022-12-11T08:39:00.699Z,17.20
2022-12-11T08:40:00.806Z,17.20
2022-12-11T08:41:08.781Z,17.20
2022-12-11T08:42:00.760Z,17.20
2022-12-11T08:43:01.073Z,17.20
2022-12-11T08:44:00.743Z,17.20
2022-12-11T08:45:00.784Z,17.20
2022-12-11T08:46:00.886Z,17.20
2022-12-11T08:47:00.694Z,17.20
2022-12-11T08:48:00.789Z,17.20
2022-12-11T08:49:00.712Z,17.20
2022-12-11T08:50:01.009Z,17.20
2022-12-11T08:51:01.405Z,17.20
2022-12-11T08:52:02.345Z,17.20
2022-12-11T08:53:00.738Z,17.20
2022-12-11T08:54:00.701Z,17.20
2022-12-11T08:55:00.715Z,17.20
2022-12-11T08:56:01.727Z,17.20
2022-12-11T08:57:00.736Z,17.20
2022-12-11T08:58:00.715Z,17.20
2022-12-11T08:59:00.995Z,17.20
2022-12-11T09:00:00.696Z,17.20
2022-12-11T09:01:05.324Z,17.20
2022-12-11T09:02:00.736Z,17.20
2022-12-11T09:03:00.717Z,17.20
2022-12-11T09:04:00.961Z,17.20
2022-12-11T09:05:00.720Z,17.20
2022-12-11T09:06:03.068Z,17.20
2022-12-11T09:07:00.706Z,17.20
2022-12-11T09:08:00.738Z,17.20
2022-12-11T09:09:01.134Z,18.30
2022-12-11T09:10:01.094Z,18.30
2022-12-11T09:11:04.900Z,18.30
2022-12-11T09:12:00.792Z,18.30
2022-12-11T09:13:00.711Z,18.30
2022-12-11T09:14:05.421Z,18.30
2022-12-11T09:15:00.811Z,18.30
2022-12-11T09:16:03.081Z,18.30
2022-12-11T09:17:00.767Z,18.30
2022-12-11T09:18:00.726Z,18.30
2022-12-11T09:19:00.797Z,18.30
2022-12-11T09:20:00.985Z,18.30
2022-12-11T09:21:02.103Z,18.30
2022-12-11T09:22:00.770Z,18.30
2022-12-11T09:23:00.731Z,18.30
2022-12-11T09:24:00.884Z,18.30
2022-12-11T09:25:00.716Z,18.30
2022-12-11T09:26:04.514Z,18.30
2022-12-11T09:27:00.752Z,18.30
2022-12-11T09:28:00.692Z,18.30
2022-12-11T09:29:02.081Z,18.30
2022-12-11T09:30:00.691Z,18.30
2022-12-11T09:31:00.828Z,18.30
2022-12-11T09:32:00.743Z,18.30
2022-12-11T09:33:00.707Z,18.30
2022-12-11T09:34:02.358Z,18.30
2022-12-11T09:35:00.702Z,18.30
2022-12-11T09:36:00.890Z,18.30
2022-12-11T09:37:00.894Z,18.30
2022-12-11T09:38:00.707Z,18.30
2022-12-11T09:39:01.441Z,19.50
2022-12-11T09:40:05.732Z,19.50
2022-12-11T09:41:01.671Z,19.50
2022-12-11T09:42:01.686Z,19.50
2022-12-11T09:43:10.626Z,19.50
2022-12-11T09:44:00.685Z,19.50
2022-12-11T09:45:01.830Z,19.50
2022-12-11T09:46:03.243Z,19.50
2022-12-11T09:47:00.727Z,19.50
2022-12-11T09:48:01.118Z,19.50
2022-12-11T09:49:01.695Z,19.50
2022-12-11T09:50:01.697Z,19.50
2022-12-11T09:51:04.702Z,19.50
2022-12-11T09:52:10.618Z,19.50
2022-12-11T09:53:10.624Z,19.50
2022-12-11T09:54:02.148Z,19.50
2022-12-11T09:55:03.600Z,19.50
2022-12-11T09:56:10.638Z,19.50
2022-12-11T09:57:06.150Z,19.50
2022-12-11T09:58:10.700Z,19.50
2022-12-11T09:59:07.567Z,19.50
2022-12-11T10:00:05.531Z,19.50
2022-12-11T10:01:05.200Z,19.50
2022-12-11T10:02:03.175Z,19.50
2022-12-11T10:03:10.621Z,19.50
2022-12-11T10:04:08.172Z,19.50
2022-12-11T10:05:10.883Z,19.50
2022-12-11T10:06:04.597Z,19.50
2022-12-11T10:07:01.699Z,19.50
2022-12-11T10:08:04.000Z,19.50
2022-12-11T10:09:01.714Z,13.60
2022-12-11T10:10:08.208Z,13.60
2022-12-11T10:11:10.399Z,13.60
2022-12-11T10:12:08.169Z,13.60
2022-12-11T10:13:08.119Z,13.60
2022-12-11T10:14:06.903Z,13.60
2022-12-11T10:15:00.788Z,13.60
2022-12-11T10:16:10.683Z,13.60
2022-12-11T10:17:06.471Z,13.60
2022-12-11T10:18:04.986Z,13.60
2022-12-11T10:19:00.692Z,13.60
2022-12-11T10:20:10.797Z,13.60
2022-12-11T10:21:02.090Z,13.60
2022-12-11T10:22:01.238Z,13.60
2022-12-11T10:23:02.792Z,13.60
2022-12-11T10:24:03.650Z,13.60
2022-12-11T10:25:12.165Z,13.60
2022-12-11T10:26:04.757Z,13.60
2022-12-11T10:27:10.700Z,13.60
2022-12-11T10:28:10.130Z,13.60
2022-12-11T10:29:01.422Z,13.60
2022-12-11T10:30:10.767Z,13.60
2022-12-11T10:31:10.749Z,13.60
2022-12-11T10:32:01.432Z,13.60
2022-12-11T10:33:01.954Z,13.60
2022-12-11T10:34:02.295Z,13.60
2022-12-11T10:35:04.312Z,13.60
2022-12-11T10:36:00.857Z,13.60
2022-12-11T10:37:02.452Z,13.60
2022-12-11T10:38:09.442Z,13.60
2022-12-11T10:39:00.778Z,13.60
2022-12-11T10:40:00.701Z,16.30
2022-12-11T10:41:01.852Z,16.30
2022-12-11T10:42:10.635Z,16.30
2022-12-11T10:43:00.701Z,16.30
2022-12-11T10:44:10.631Z,16.30
2022-12-11T10:45:02.075Z,16.30
2022-12-11T10:46:00.801Z,16.30
2022-12-11T10:47:10.615Z,16.30
2022-12-11T10:48:01.874Z,16.30
2022-12-11T10:49:00.892Z,16.30
2022-12-11T10:50:01.349Z,16.30
2022-12-11T10:51:02.137Z,16.30
2022-12-11T10:52:01.212Z,16.30
2022-12-11T10:53:00.850Z,16.30
2022-12-11T10:54:07.313Z,16.30
2022-12-11T10:55:02.328Z,16.30
2022-12-11T10:56:01.006Z,16.30
2022-12-11T10:57:02.056Z,16.30
2022-12-11T10:58:03.228Z,16.30
2022-12-11T10:59:00.880Z,16.30
2022-12-11T11:00:00.961Z,16.30
2022-12-11T11:01:04.184Z,16.30
2022-12-11T11:02:01.432Z,16.30
2022-12-11T11:03:01.172Z,16.30
2022-12-11T11:04:02.999Z,16.30
2022-12-11T11:05:10.855Z,16.30
2022-12-11T11:06:03.558Z,16.30
2022-12-11T11:07:02.016Z,16.30
2022-12-11T11:08:10.672Z,16.30
2022-12-11T11:09:00.937Z,16.30
2022-12-11T11:10:10.701Z,16.30
2022-12-11T11:11:00.696Z,16.30
2022-12-11T11:12:07.458Z,16.30
2022-12-11T11:13:01.449Z,16.30
2022-12-11T11:14:09.145Z,16.30
2022-12-11T11:15:02.850Z,16.30
2022-12-11T11:16:03.421Z,16.30
2022-12-11T11:17:00.738Z,16.30
2022-12-11T11:18:08.552Z,16.30
2022-12-11T11:19:00.743Z,16.30
2022-12-11T11:20:10.662Z,16.30
2022-12-11T11:21:01.121Z,16.30
2022-12-11T11:22:00.690Z,16.30
2022-12-11T11:23:01.813Z,16.30
2022-12-11T11:24:00.859Z,16.30
2022-12-11T11:25:01.074Z,16.30
2022-12-11T11:26:05.253Z,16.30
2022-12-11T11:27:14.041Z,16.30
2022-12-11T11:28:02.558Z,16.30
2022-12-11T11:29:00.728Z,16.30
2022-12-11T11:30:04.460Z,16.30
2022-12-11T11:31:01.848Z,16.30
2022-12-11T11:32:10.620Z,16.30
2022-12-11T11:33:04.296Z,16.30
2022-12-11T11:34:04.713Z,16.30
2022-12-11T11:35:10.921Z,16.30
2022-12-11T11:36:02.552Z,16.30
2022-12-11T11:37:00.708Z,16.30
2022-12-11T11:38:08.117Z,16.30
2022-12-11T11:39:05.011Z,16.30
2022-12-11T11:40:10.649Z,16.10
2022-12-11T11:41:14.885Z,16.10
2022-12-11T11:42:10.625Z,16.10
2022-12-11T11:43:06.299Z,16.10
2022-12-11T11:44:03.615Z,16.10
2022-12-11T11:45:04.625Z,16.10
2022-12-11T11:46:05.278Z,16.10
2022-12-11T11:47:07.982Z,16.10
2022-12-11T11:48:11.679Z,16.10
2022-12-11T11:49:10.653Z,16.10
2022-12-11T11:50:01.693Z,16.10
2022-12-11T11:51:06.746Z,16.10
2022-12-11T11:52:06.788Z,16.10
2022-12-11T11:53:03.780Z,16.10
2022-12-11T11:54:02.438Z,16.10
2022-12-11T11:55:11.018Z,16.10
2022-12-11T11:56:04.025Z,16.10
2022-12-11T11:57:04.453Z,16.10
2022-12-11T11:58:10.649Z,16.10
2022-12-11T11:59:04.843Z,16.10
2022-12-11T12:00:04.467Z,16.10
2022-12-11T12:01:00.735Z,16.10
2022-12-11T12:02:00.988Z,16.10
2022-12-11T12:03:05.016Z,16.10
2022-12-11T12:04:01.590Z,16.10
2022-12-11T12:05:01.317Z,16.10
2022-12-11T12:06:00.709Z,16.10
2022-12-11T12:07:08.173Z,16.10
2022-12-11T12:08:06.880Z,16.10
2022-12-11T12:09:00.696Z,16.10
2022-12-11T12:10:10.780Z,19.00
2022-12-11T12:11:10.617Z,19.00
2022-12-11T12:12:10.220Z,19.00
2022-12-11T12:13:30.098Z,19.00
2022-12-11T12:14:01.718Z,19.00
2022-12-11T12:15:10.980Z,19.00
2022-12-11T12:16:01.296Z,19.00
2022-12-11T12:17:08.286Z,19.00
2022-12-11T12:18:01.697Z,19.00
2022-12-11T12:19:07.933Z,19.00
2022-12-11T12:20:10.620Z,19.00
2022-12-11T12:21:10.630Z,19.00
2022-12-11T12:22:10.660Z,19.00
2022-12-11T12:23:10.652Z,19.00
2022-12-11T12:24:10.624Z,19.00
2022-12-11T12:25:11.014Z,19.00
2022-12-11T12:26:10.635Z,19.00
2022-12-11T12:27:29.436Z,19.00
2022-12-11T12:28:10.628Z,19.00
2022-12-11T12:29:10.617Z,19.00
2022-12-11T12:30:00.718Z,19.00
2022-12-11T12:31:10.659Z,19.00
2022-12-11T12:32:08.128Z,19.00
2022-12-11T12:33:10.002Z,19.00
2022-12-11T12:34:09.021Z,19.00
2022-12-11T12:35:11.081Z,19.00
2022-12-11T12:36:07.091Z,19.00
2022-12-11T12:37:10.627Z,19.00
2022-12-11T12:38:01.724Z,19.00
2022-12-11T12:39:04.865Z,19.00
2022-12-11T12:40:00.703Z,22.20
2022-12-11T12:41:00.705Z,22.20
2022-12-11T12:42:07.522Z,22.20
2022-12-11T12:43:10.628Z,22.20
2022-12-11T12:44:00.732Z,22.20
2022-12-11T12:45:07.255Z,22.20
2022-12-11T12:46:09.840Z,22.20
2022-12-11T12:47:10.628Z,22.20
2022-12-11T12:48:00.886Z,22.20
2022-12-11T12:49:01.472Z,22.20
2022-12-11T12:50:01.675Z,22.20
2022-12-11T12:51:02.064Z,22.20
2022-12-11T12:52:01.972Z,22.20